createdAt,value
2023-10-22T00:00:09.700Z,50.70
2023-10-22T00:00:23.359Z,49.75
2023-10-22T00:00:56.941Z,48.40
2023-10-22T00:01:30.932Z,46.97
2023-10-22T00:01:43.970Z,50.45
2023-10-22T00:01:57.460Z,49.28
2023-10-22T00:02:10.479Z,49.78
2023-10-22T00:02:23.300Z,50.10
2023-10-22T00:02:36.000Z,50.97
2023-10-22T00:02:49.772Z,52.33
2023-10-22T00:03:02.846Z,54.95
2023-10-22T00:03:15.839Z,54.03
2023-10-22T00:03:28.726Z,52.10
2023-10-22T00:03:41.816Z,45.17
2023-10-22T00:03:54.613Z,43.45
2023-10-22T00:04:07.726Z,46.60
2023-10-22T00:04:21.013Z,47.83
2023-10-22T00:04:34.088Z,47.08
2023-10-22T00:04:47.843Z,52.25
2023-10-22T00:05:00.503Z,61.67
2023-10-22T00:05:13.197Z,62.28
2023-10-22T00:05:25.940Z,55.63
2023-10-22T00:05:38.557Z,55.42
2023-10-22T00:05:51.208Z,57.60
2023-10-22T00:06:04.229Z,56.03
2023-10-22T00:06:16.968Z,54.53
2023-10-22T00:06:30.603Z,53.83
2023-10-22T00:06:43.869Z,51.00
2023-10-22T00:06:56.513Z,51.70
2023-10-22T00:07:09.293Z,51.30
2023-10-22T00:07:21.949Z,49.67
2023-10-22T00:07:35.128Z,49.63
2023-10-22T00:07:47.714Z,50.20
2023-10-22T00:08:00.404Z,55.60
2023-10-22T00:08:13.116Z,52.38
2023-10-22T00:08:26.750Z,48.97
2023-10-22T00:08:39.394Z,49.05
2023-10-22T00:08:52.072Z,51.83
2023-10-22T00:09:04.815Z,50.30
2023-10-22T00:09:18.010Z,48.55
2023-10-22T00:09:30.677Z,50.17
2023-10-22T00:09:43.524Z,54.78
2023-10-22T00:09:56.240Z,56.65
2023-10-22T00:10:09.981Z,51.65
2023-10-22T00:10:23.696Z,50.25
2023-10-22T00:10:36.328Z,52.53
2023-10-22T00:10:48.962Z,49.97
2023-10-22T00:11:01.690Z,46.75
2023-10-22T00:11:14.342Z,43.00
2023-10-22T00:11:26.998Z,44.08
2023-10-22T00:11:39.675Z,47.50
2023-10-22T00:11:52.415Z,49.38
2023-10-22T00:12:05.743Z,51.63
2023-10-22T00:12:18.382Z,49.03
2023-10-22T00:12:32.241Z,51.92
2023-10-22T00:12:44.882Z,53.72
2023-10-22T00:12:57.851Z,47.30
2023-10-22T00:13:10.556Z,46.25
2023-10-22T00:13:23.224Z,47.38
2023-10-22T00:13:35.885Z,48.80
2023-10-22T00:13:48.538Z,50.15
2023-10-22T00:14:01.557Z,47.88
2023-10-22T00:14:15.178Z,45.42
2023-10-22T00:14:27.884Z,46.20
2023-10-22T00:14:40.579Z,46.08
2023-10-22T00:14:53.448Z,46.55
2023-10-22T00:15:06.980Z,47.45
2023-10-22T00:15:19.733Z,51.22
2023-10-22T00:15:32.375Z,54.20
2023-10-22T00:15:45.085Z,51.50
2023-10-22T00:15:57.883Z,48.15
2023-10-22T00:16:10.623Z,48.30
2023-10-22T00:16:24.355Z,53.15
2023-10-22T00:16:38.416Z,51.17
2023-10-22T00:16:51.163Z,47.80
2023-10-22T00:17:04.423Z,46.72
2023-10-22T00:17:17.179Z,47.65
2023-10-22T00:17:29.828Z,51.97
2023-10-22T00:17:42.963Z,55.08
2023-10-22T00:17:57.118Z,54.72
2023-10-22T00:18:09.892Z,48.83
2023-10-22T00:18:22.707Z,50.13
2023-10-22T00:18:35.560Z,47.33
2023-10-22T00:18:48.575Z,46.00
2023-10-22T00:19:01.288Z,45.08
2023-10-22T00:19:13.937Z,48.00
2023-10-22T00:19:26.756Z,53.63
2023-10-22T00:19:39.369Z,51.53
2023-10-22T00:19:52.064Z,46.22
2023-10-22T00:20:06.563Z,44.75
2023-10-22T00:20:20.652Z,47.72
2023-10-22T00:20:34.369Z,48.33
2023-10-22T00:20:47.142Z,47.95
2023-10-22T00:20:59.847Z,51.72
2023-10-22T00:21:12.621Z,53.80
2023-10-22T00:21:25.314Z,52.78
2023-10-22T00:21:37.947Z,48.42
2023-10-22T00:21:50.976Z,45.35
2023-10-22T00:22:03.748Z,47.40
2023-10-22T00:22:18.204Z,45.45
2023-10-22T00:22:31.060Z,41.50
2023-10-22T00:22:43.685Z,41.10
2023-10-22T00:22:56.284Z,41.42
2023-10-22T00:23:09.128Z,40.67
2023-10-22T00:23:21.765Z,42.90
2023-10-22T00:23:34.488Z,43.28
2023-10-22T00:23:47.213Z,43.22
2023-10-22T00:23:59.987Z,47.08
2023-10-22T00:24:12.724Z,50.53
2023-10-22T00:24:26.319Z,52.28
2023-10-22T00:24:39.206Z,53.13
2023-10-22T00:24:51.899Z,61.15
2023-10-22T00:25:05.428Z,64.60
2023-10-22T00:25:18.360Z,57.13
2023-10-22T00:25:30.993Z,52.35
2023-10-22T00:25:44.062Z,49.60
2023-10-22T00:25:56.691Z,50.90
2023-10-22T00:26:15.217Z,56.15
2023-10-22T00:26:27.891Z,51.90
2023-10-22T00:26:41.272Z,49.53
2023-10-22T00:26:54.133Z,49.42
2023-10-22T00:27:06.834Z,46.78
2023-10-22T00:27:19.525Z,50.78
2023-10-22T00:27:33.788Z,49.92
2023-10-22T00:27:46.588Z,41.90
2023-10-22T00:27:59.213Z,45.10
2023-10-22T00:28:12.423Z,47.25
2023-10-22T00:28:25.018Z,47.10
2023-10-22T00:28:38.629Z,46.35
2023-10-22T00:28:51.232Z,49.38
2023-10-22T00:29:04.039Z,49.92
2023-10-22T00:29:16.734Z,45.90
2023-10-22T00:29:29.333Z,46.58
2023-10-22T00:29:42.331Z,47.25
2023-10-22T00:29:55.050Z,46.53
2023-10-22T00:30:08.965Z,44.38
2023-10-22T00:30:21.663Z,43.53
2023-10-22T00:30:35.456Z,44.78
2023-10-22T00:30:49.743Z,46.90
2023-10-22T00:31:02.361Z,48.47
2023-10-22T00:31:15.014Z,50.30
2023-10-22T00:31:27.800Z,49.38
2023-10-22T00:31:42.110Z,57.35
2023-10-22T00:31:54.751Z,57.35
2023-10-22T00:32:07.511Z,48.72
2023-10-22T00:32:21.170Z,49.72
2023-10-22T00:32:34.029Z,51.10
2023-10-22T00:32:47.865Z,48.83
2023-10-22T00:33:00.724Z,50.92
2023-10-22T00:33:13.557Z,51.83
2023-10-22T00:33:26.414Z,52.35
2023-10-22T00:33:39.570Z,58.20
2023-10-22T00:33:52.483Z,59.75
2023-10-22T00:34:05.594Z,53.72
2023-10-22T00:34:18.490Z,49.63
2023-10-22T00:34:31.378Z,51.55
2023-10-22T00:34:46.007Z,50.40
2023-10-22T00:34:58.631Z,47.85
2023-10-22T00:35:11.286Z,47.03
2023-10-22T00:35:25.831Z,47.35
2023-10-22T00:35:40.283Z,47.67
2023-10-22T00:35:56.883Z,48.97
2023-10-22T00:36:09.610Z,45.60
2023-10-22T00:36:25.496Z,45.13
2023-10-22T00:36:38.166Z,47.72
2023-10-22T00:36:51.214Z,48.38
2023-10-22T00:37:05.210Z,49.45
2023-10-22T00:37:17.936Z,47.53
2023-10-22T00:37:30.869Z,44.00
2023-10-22T00:37:43.554Z,41.25
2023-10-22T00:37:56.191Z,44.88
2023-10-22T00:38:08.856Z,47.75
2023-10-22T00:38:21.491Z,47.25
2023-10-22T00:38:34.232Z,50.15
2023-10-22T00:38:46.961Z,49.50
2023-10-22T00:38:59.669Z,45.83
2023-10-22T00:39:12.362Z,45.05
2023-10-22T00:39:26.130Z,41.60
2023-10-22T00:39:38.752Z,41.95
2023-10-22T00:39:51.837Z,45.40
2023-10-22T00:40:05.369Z,50.70
2023-10-22T00:40:18.252Z,50.53
2023-10-22T00:40:30.866Z,50.13
2023-10-22T00:40:43.569Z,48.72
2023-10-22T00:40:56.226Z,49.17
2023-10-22T00:41:08.878Z,49.08
2023-10-22T00:41:21.588Z,48.33
2023-10-22T00:41:35.690Z,45.70
2023-10-22T00:41:48.584Z,45.47
2023-10-22T00:42:01.463Z,46.38
2023-10-22T00:42:14.208Z,47.17
2023-10-22T00:42:26.887Z,47.97
2023-10-22T00:42:39.516Z,45.80
2023-10-22T00:42:52.232Z,44.97
2023-10-22T00:43:07.533Z,44.08
2023-10-22T00:43:20.299Z,43.38
2023-10-22T00:43:32.924Z,40.42
2023-10-22T00:43:45.622Z,41.95
2023-10-22T00:43:58.304Z,44.75
2023-10-22T00:44:10.949Z,44.75
2023-10-22T00:44:24.453Z,45.15
2023-10-22T00:44:37.563Z,46.33
2023-10-22T00:44:51.435Z,44.97
2023-10-22T00:45:05.126Z,43.78
2023-10-22T00:45:17.889Z,46.33
2023-10-22T00:45:36.580Z,52.55
2023-10-22T00:45:49.574Z,44.55
2023-10-22T00:46:03.935Z,42.15
2023-10-22T00:46:19.379Z,42.38
2023-10-22T00:46:32.301Z,43.38
2023-10-22T00:46:47.204Z,46.20
2023-10-22T00:47:01.113Z,44.65
2023-10-22T00:47:17.089Z,43.13
2023-10-22T00:47:30.553Z,47.72
2023-10-22T00:47:43.397Z,47.17
2023-10-22T00:47:56.169Z,43.88
2023-10-22T00:48:10.156Z,44.70
2023-10-22T00:48:23.401Z,45.75
2023-10-22T00:48:36.522Z,45.03
2023-10-22T00:48:49.844Z,43.58
2023-10-22T00:49:03.155Z,42.28
2023-10-22T00:49:17.931Z,41.53
2023-10-22T00:49:30.953Z,41.35
2023-10-22T00:49:46.912Z,41.53
2023-10-22T00:50:00.641Z,42.97
2023-10-22T00:50:13.871Z,42.47
2023-10-22T00:50:26.542Z,46.35
2023-10-22T00:50:40.565Z,48.63
2023-10-22T00:50:53.883Z,46.78
2023-10-22T00:51:07.617Z,43.90
2023-10-22T00:51:20.909Z,46.33
2023-10-22T00:51:34.145Z,45.35
2023-10-22T00:51:48.154Z,45.55
2023-10-22T00:52:01.127Z,45.70
2023-10-22T00:52:14.856Z,42.75
2023-10-22T00:52:29.218Z,43.05
2023-10-22T00:52:42.624Z,46.08
2023-10-22T00:52:56.288Z,46.78
2023-10-22T00:53:10.314Z,42.88
2023-10-22T00:53:28.490Z,43.13
2023-10-22T00:53:42.845Z,43.72
2023-10-22T00:53:55.889Z,45.40
2023-10-22T00:54:09.155Z,46.15
2023-10-22T00:54:22.395Z,43.45
2023-10-22T00:54:35.832Z,42.60
2023-10-22T00:54:48.875Z,49.72
2023-10-22T00:55:03.863Z,55.83
2023-10-22T00:55:16.600Z,61.83
2023-10-22T00:55:29.313Z,64.10
2023-10-22T00:55:44.293Z,55.47
2023-10-22T00:55:57.225Z,44.97
2023-10-22T00:56:11.051Z,45.55
2023-10-22T00:56:24.165Z,43.97
2023-10-22T00:56:37.795Z,41.47
2023-10-22T00:56:53.133Z,42.03
2023-10-22T00:57:05.915Z,44.33
2023-10-22T00:57:20.321Z,43.45
2023-10-22T00:57:33.965Z,41.05
2023-10-22T00:57:46.923Z,40.45
2023-10-22T00:57:59.582Z,41.75
2023-10-22T00:58:12.779Z,43.55
2023-10-22T00:58:26.325Z,43.15
2023-10-22T00:58:39.275Z,40.33
2023-10-22T00:58:51.957Z,40.85
2023-10-22T00:59:05.792Z,44.03
2023-10-22T00:59:19.388Z,44.80
2023-10-22T00:59:32.768Z,44.75
2023-10-22T00:59:45.495Z,43.90
2023-10-22T00:59:58.195Z,43.67
2023-10-22T01:00:11.987Z,41.33
2023-10-22T01:00:26.736Z,38.90
2023-10-22T01:00:39.700Z,41.05
2023-10-22T01:00:52.513Z,44.10
2023-10-22T01:01:09.460Z,45.42
2023-10-22T01:01:24.145Z,42.50
2023-10-22T01:01:36.822Z,39.05
2023-10-22T01:01:52.065Z,39.25
2023-10-22T01:02:04.798Z,41.00
2023-10-22T01:02:17.754Z,41.88
2023-10-22T01:02:30.471Z,40.85
2023-10-22T01:02:43.379Z,42.92
2023-10-22T01:02:56.167Z,44.70
2023-10-22T01:03:10.041Z,43.15
2023-10-22T01:03:23.892Z,39.70
2023-10-22T01:03:36.871Z,40.15
2023-10-22T01:03:49.673Z,40.78
2023-10-22T01:04:02.558Z,40.08
2023-10-22T01:04:15.460Z,40.40
2023-10-22T01:04:28.254Z,42.10
2023-10-22T01:04:41.187Z,41.45
2023-10-22T01:04:54.140Z,41.78
2023-10-22T01:05:09.618Z,39.33
2023-10-22T01:05:23.284Z,38.60
2023-10-22T01:05:37.567Z,42.72
2023-10-22T01:05:50.256Z,44.72
2023-10-22T01:06:03.520Z,43.92
2023-10-22T01:06:16.327Z,45.50
2023-10-22T01:06:29.119Z,46.65
2023-10-22T01:06:41.812Z,45.95
2023-10-22T01:06:54.502Z,44.80
2023-10-22T01:07:08.255Z,42.83
2023-10-22T01:07:21.324Z,44.92
2023-10-22T01:07:34.666Z,45.45
2023-10-22T01:07:48.379Z,44.13
2023-10-22T01:08:00.987Z,45.15
2023-10-22T01:08:13.672Z,44.65
2023-10-22T01:08:26.416Z,44.90
2023-10-22T01:08:40.798Z,45.63
2023-10-22T01:08:55.228Z,45.63
2023-10-22T01:09:11.335Z,45.13
2023-10-22T01:09:24.182Z,41.50
2023-10-22T01:09:37.194Z,40.80
2023-10-22T01:09:49.842Z,43.00
2023-10-22T01:10:03.936Z,44.03
2023-10-22T01:10:16.600Z,42.15
2023-10-22T01:10:29.277Z,42.55
2023-10-22T01:10:42.184Z,43.67
2023-10-22T01:11:04.970Z,43.08
2023-10-22T01:11:18.895Z,48.70
2023-10-22T01:11:31.482Z,44.78
2023-10-22T01:11:59.834Z,42.92
2023-10-22T01:12:12.739Z,41.65
2023-10-22T01:12:34.816Z,44.85
2023-10-22T01:12:47.462Z,50.08
2023-10-22T01:13:00.308Z,53.30
2023-10-22T01:13:13.094Z,53.10
2023-10-22T01:13:26.897Z,51.53
2023-10-22T01:13:41.712Z,45.58
2023-10-22T01:13:54.590Z,42.67
2023-10-22T01:14:07.836Z,43.75
2023-10-22T01:14:20.475Z,45.30
2023-10-22T01:14:33.523Z,46.90
2023-10-22T01:14:46.875Z,45.53
2023-10-22T01:14:59.503Z,43.67
2023-10-22T01:15:13.186Z,44.63
2023-10-22T01:15:25.943Z,44.92
2023-10-22T01:15:38.584Z,44.60
2023-10-22T01:15:51.263Z,41.78
2023-10-22T01:16:04.702Z,43.80
2023-10-22T01:16:17.586Z,45.08
2023-10-22T01:16:30.540Z,43.08
2023-10-22T01:16:43.364Z,43.50
2023-10-22T01:16:57.776Z,42.85
2023-10-22T01:17:11.384Z,43.15
2023-10-22T01:17:24.057Z,43.92
2023-10-22T01:17:37.078Z,46.67
2023-10-22T01:17:49.983Z,45.13
2023-10-22T01:18:04.036Z,43.53
2023-10-22T01:18:16.772Z,43.33
2023-10-22T01:18:29.802Z,45.63
2023-10-22T01:18:42.786Z,47.10
2023-10-22T01:18:56.439Z,44.25
2023-10-22T01:19:09.361Z,42.97
2023-10-22T01:19:22.233Z,41.50
2023-10-22T01:19:34.948Z,39.83
2023-10-22T01:19:47.587Z,39.78
2023-10-22T01:20:00.226Z,39.13
2023-10-22T01:20:14.570Z,39.72
2023-10-22T01:20:27.277Z,42.05
2023-10-22T01:20:39.923Z,43.63
2023-10-22T01:20:52.809Z,45.35
2023-10-22T01:21:06.618Z,46.90
2023-10-22T01:21:19.416Z,46.80
2023-10-22T01:21:32.647Z,46.58
2023-10-22T01:21:45.407Z,43.20
2023-10-22T01:21:58.874Z,42.15
2023-10-22T01:22:11.562Z,42.92
2023-10-22T01:22:24.373Z,51.72
2023-10-22T01:22:37.059Z,56.38
2023-10-22T01:22:49.700Z,54.05
2023-10-22T01:23:03.346Z,45.72
2023-10-22T01:23:17.415Z,46.72
2023-10-22T01:23:30.014Z,46.55
2023-10-22T01:23:42.746Z,44.83
2023-10-22T01:23:55.431Z,40.97
2023-10-22T01:24:09.435Z,41.35
2023-10-22T01:24:22.110Z,42.80
2023-10-22T01:24:34.780Z,44.55
2023-10-22T01:24:48.532Z,44.33
2023-10-22T01:25:01.176Z,43.40
2023-10-22T01:25:13.838Z,42.38
2023-10-22T01:25:26.517Z,42.22
2023-10-22T01:25:39.425Z,42.67
2023-10-22T01:25:52.451Z,42.17
2023-10-22T01:26:07.662Z,41.90
2023-10-22T01:26:21.468Z,42.30
2023-10-22T01:26:40.556Z,42.28
2023-10-22T01:26:53.290Z,45.55
2023-10-22T01:27:05.960Z,46.15
2023-10-22T01:27:18.764Z,44.33
2023-10-22T01:27:33.403Z,43.05
2023-10-22T01:27:46.051Z,41.80
2023-10-22T01:27:59.741Z,41.95
2023-10-22T01:28:12.377Z,41.28
2023-10-22T01:28:26.034Z,41.75
2023-10-22T01:28:38.715Z,41.05
2023-10-22T01:28:51.336Z,42.50
2023-10-22T01:29:04.024Z,43.70
2023-10-22T01:29:16.705Z,43.70
2023-10-22T01:29:29.640Z,40.15
2023-10-22T01:29:42.447Z,41.25
2023-10-22T01:29:55.181Z,42.85
2023-10-22T01:30:10.933Z,42.90
2023-10-22T01:30:23.580Z,43.22
2023-10-22T01:30:39.044Z,42.00
2023-10-22T01:30:52.070Z,40.17
2023-10-22T01:31:05.996Z,42.03
2023-10-22T01:31:22.054Z,42.30
2023-10-22T01:31:34.844Z,43.72
2023-10-22T01:31:49.075Z,44.45
2023-10-22T01:32:02.070Z,44.42
2023-10-22T01:32:15.018Z,45.75
2023-10-22T01:32:31.507Z,47.15
2023-10-22T01:32:44.275Z,44.00
2023-10-22T01:32:57.289Z,42.00
2023-10-22T01:33:10.248Z,41.72
2023-10-22T01:33:23.347Z,41.95
2023-10-22T01:33:37.195Z,40.65
2023-10-22T01:33:50.182Z,42.60
2023-10-22T01:34:02.991Z,44.22
2023-10-22T01:34:15.840Z,47.97
2023-10-22T01:34:28.510Z,45.30
2023-10-22T01:34:41.153Z,43.72
2023-10-22T01:34:53.970Z,43.13
2023-10-22T01:35:07.383Z,43.47
2023-10-22T01:35:20.106Z,44.80
2023-10-22T01:35:33.296Z,45.10
2023-10-22T01:35:46.985Z,44.00
2023-10-22T01:35:59.671Z,44.08
2023-10-22T01:36:12.439Z,43.97
2023-10-22T01:36:25.361Z,42.38
2023-10-22T01:36:38.072Z,44.28
2023-10-22T01:36:50.708Z,44.70
2023-10-22T01:37:03.696Z,44.53
2023-10-22T01:37:16.699Z,44.72
2023-10-22T01:37:29.326Z,43.22
2023-10-22T01:37:42.931Z,42.42
2023-10-22T01:37:55.623Z,42.15
2023-10-22T01:38:08.293Z,42.75
2023-10-22T01:38:22.278Z,42.53
2023-10-22T01:38:34.971Z,42.15
2023-10-22T01:38:47.867Z,45.80
2023-10-22T01:39:00.637Z,45.95
2023-10-22T01:39:16.528Z,44.15
2023-10-22T01:39:29.449Z,45.95
2023-10-22T01:39:42.185Z,45.70
2023-10-22T01:39:55.662Z,41.28
2023-10-22T01:40:09.602Z,40.85
2023-10-22T01:40:22.385Z,41.95
2023-10-22T01:40:35.056Z,42.97
2023-10-22T01:40:47.711Z,43.42
2023-10-22T01:41:05.125Z,41.92
2023-10-22T01:41:19.250Z,40.42
2023-10-22T01:41:32.011Z,40.67
2023-10-22T01:41:44.747Z,42.67
2023-10-22T01:41:57.504Z,44.70
2023-10-22T01:42:10.191Z,44.05
2023-10-22T01:42:22.947Z,42.85
2023-10-22T01:42:35.583Z,42.35
2023-10-22T01:42:48.262Z,44.00
2023-10-22T01:43:00.942Z,43.13
2023-10-22T01:43:13.556Z,42.50
2023-10-22T01:43:27.185Z,43.58
2023-10-22T01:43:39.940Z,45.45
2023-10-22T01:43:53.786Z,46.10
2023-10-22T01:44:06.903Z,43.10
2023-10-22T01:44:20.045Z,43.00
2023-10-22T01:44:32.843Z,44.53
2023-10-22T01:44:45.591Z,46.85
2023-10-22T01:44:58.329Z,46.63
2023-10-22T01:45:12.641Z,45.90
2023-10-22T01:45:25.377Z,44.40
2023-10-22T01:45:37.982Z,44.35
2023-10-22T01:45:50.609Z,43.05
2023-10-22T01:46:03.269Z,41.40
2023-10-22T01:46:16.102Z,40.50
2023-10-22T01:46:28.803Z,42.47
2023-10-22T01:46:41.704Z,43.85
2023-10-22T01:46:55.478Z,42.65
2023-10-22T01:47:08.279Z,41.97
2023-10-22T01:47:20.975Z,42.00
2023-10-22T01:47:33.690Z,40.75
2023-10-22T01:47:46.442Z,39.60
2023-10-22T01:47:59.201Z,42.03
2023-10-22T01:48:12.114Z,43.33
2023-10-22T01:48:24.915Z,42.30
2023-10-22T01:48:39.442Z,41.45
2023-10-22T01:48:53.176Z,41.35
2023-10-22T01:49:06.211Z,40.92
2023-10-22T01:49:19.246Z,38.55
2023-10-22T01:49:31.977Z,37.42
2023-10-22T01:49:44.686Z,40.08
2023-10-22T01:49:57.541Z,41.83
2023-10-22T01:50:11.209Z,42.13
2023-10-22T01:50:24.783Z,41.33
2023-10-22T01:50:37.472Z,42.35
2023-10-22T01:50:51.151Z,41.33
2023-10-22T01:51:04.031Z,41.95
2023-10-22T01:51:16.812Z,42.63
2023-10-22T01:51:29.805Z,40.00
2023-10-22T01:51:42.532Z,38.30
2023-10-22T01:51:55.209Z,40.45
2023-10-22T01:52:07.903Z,40.90
2023-10-22T01:52:20.613Z,41.15
2023-10-22T01:52:34.737Z,41.70
2023-10-22T01:52:47.360Z,40.90
2023-10-22T01:53:00.045Z,41.35
2023-10-22T01:53:13.016Z,43.17
2023-10-22T01:53:27.023Z,43.60
2023-10-22T01:53:39.715Z,42.22
2023-10-22T01:53:52.443Z,41.05
2023-10-22T01:54:07.783Z,40.50
2023-10-22T01:54:20.452Z,40.33
2023-10-22T01:54:34.112Z,40.90
2023-10-22T01:54:46.765Z,41.42
2023-10-22T01:54:59.420Z,42.35
2023-10-22T01:55:12.081Z,40.42
2023-10-22T01:55:24.698Z,40.20
2023-10-22T01:55:37.780Z,40.03
2023-10-22T01:55:50.545Z,40.65
2023-10-22T01:56:04.780Z,41.22
2023-10-22T01:56:17.459Z,41.95
2023-10-22T01:56:30.114Z,43.17
2023-10-22T01:56:45.344Z,45.08
2023-10-22T01:56:58.062Z,42.65
2023-10-22T01:57:11.092Z,40.38
2023-10-22T01:57:24.762Z,41.35
2023-10-22T01:57:37.533Z,41.90
2023-10-22T01:57:50.165Z,42.92
2023-10-22T01:58:02.838Z,46.15
2023-10-22T01:58:15.823Z,46.35
2023-10-22T01:58:29.537Z,44.72
2023-10-22T01:58:43.462Z,43.72
2023-10-22T01:58:56.122Z,44.83
2023-10-22T01:59:08.842Z,46.17
2023-10-22T01:59:21.508Z,43.97
2023-10-22T01:59:34.186Z,44.13
2023-10-22T01:59:46.872Z,46.80
2023-10-22T01:59:59.545Z,45.53
2023-10-22T02:00:13.265Z,46.05
2023-10-22T02:00:27.022Z,46.70
2023-10-22T02:00:39.726Z,45.10
2023-10-22T02:01:02.145Z,43.05
2023-10-22T02:01:15.194Z,44.92
2023-10-22T02:01:28.380Z,43.35
2023-10-22T02:01:41.068Z,41.38
2023-10-22T02:01:53.777Z,41.58
2023-10-22T02:02:06.424Z,39.03
2023-10-22T02:02:20.293Z,41.22
2023-10-22T02:02:34.096Z,45.65
2023-10-22T02:02:46.963Z,45.63
2023-10-22T02:03:00.228Z,44.25
2023-10-22T02:03:13.100Z,42.92
2023-10-22T02:03:25.831Z,40.08
2023-10-22T02:03:38.790Z,41.83
2023-10-22T02:03:51.585Z,44.60
2023-10-22T02:04:05.532Z,45.40
2023-10-22T02:04:18.168Z,44.08
2023-10-22T02:04:31.630Z,45.50
2023-10-22T02:04:44.287Z,48.33
2023-10-22T02:04:56.936Z,47.70
2023-10-22T02:05:09.654Z,47.20
2023-10-22T02:05:22.622Z,44.00
2023-10-22T02:05:35.854Z,44.55
2023-10-22T02:05:48.724Z,44.85
2023-10-22T02:06:02.628Z,43.90
2023-10-22T02:06:16.259Z,40.75
2023-10-22T02:06:29.183Z,43.20
2023-10-22T02:06:42.641Z,44.30
2023-10-22T02:06:55.314Z,44.95
2023-10-22T02:07:08.241Z,45.67
2023-10-22T02:07:21.006Z,46.28
2023-10-22T02:07:33.742Z,45.63
2023-10-22T02:07:46.367Z,46.10
2023-10-22T02:08:00.146Z,47.45
2023-10-22T02:08:12.871Z,47.25
2023-10-22T02:08:27.137Z,46.45
2023-10-22T02:08:40.144Z,43.45
2023-10-22T02:08:52.919Z,43.90
2023-10-22T02:09:05.611Z,45.05
2023-10-22T02:09:18.657Z,45.50
2023-10-22T02:09:32.287Z,46.90
2023-10-22T02:09:45.073Z,46.92
2023-10-22T02:09:58.137Z,46.70
2023-10-22T02:10:11.507Z,45.78
2023-10-22T02:10:24.320Z,46.53
2023-10-22T02:10:36.991Z,44.05
2023-10-22T02:10:49.680Z,44.45
2023-10-22T02:11:02.375Z,47.55
2023-10-22T02:11:15.779Z,48.25
2023-10-22T02:11:29.798Z,45.00
2023-10-22T02:11:42.656Z,43.80
2023-10-22T02:11:55.485Z,44.17
2023-10-22T02:12:09.957Z,43.65
2023-10-22T02:12:27.782Z,44.90
2023-10-22T02:12:40.556Z,46.38
2023-10-22T02:12:54.289Z,44.58
2023-10-22T02:13:07.005Z,44.33
2023-10-22T02:13:20.269Z,44.85
2023-10-22T02:13:33.086Z,46.67
2023-10-22T02:13:46.006Z,45.90
2023-10-22T02:13:59.711Z,44.00
2023-10-22T02:14:12.356Z,43.40
2023-10-22T02:14:26.027Z,44.60
2023-10-22T02:14:38.941Z,43.67
2023-10-22T02:14:51.869Z,43.08
2023-10-22T02:15:06.509Z,42.90
2023-10-22T02:15:19.355Z,41.28
2023-10-22T02:15:32.191Z,41.20
2023-10-22T02:15:44.945Z,40.28
2023-10-22T02:15:57.708Z,41.42
2023-10-22T02:16:10.358Z,41.58
2023-10-22T02:16:23.461Z,42.13
2023-10-22T02:16:36.150Z,43.88
2023-10-22T02:16:49.938Z,44.78
2023-10-22T02:17:02.763Z,43.85
2023-10-22T02:17:15.436Z,43.05
2023-10-22T02:17:28.411Z,44.75
2023-10-22T02:17:41.239Z,44.58
2023-10-22T02:17:54.213Z,42.10
2023-10-22T02:18:06.993Z,41.15
2023-10-22T02:18:19.830Z,42.05
2023-10-22T02:18:32.609Z,41.08
2023-10-22T02:18:46.415Z,42.90
2023-10-22T02:18:59.134Z,44.60
2023-10-22T02:19:11.810Z,44.28
2023-10-22T02:19:24.535Z,42.38
2023-10-22T02:19:37.227Z,42.40
2023-10-22T02:19:49.857Z,43.90
2023-10-22T02:20:02.669Z,43.58
2023-10-22T02:20:15.477Z,40.45
2023-10-22T02:20:29.150Z,39.67
2023-10-22T02:20:41.924Z,39.85
2023-10-22T02:20:56.250Z,40.97
2023-10-22T02:21:09.950Z,44.90
2023-10-22T02:21:27.281Z,46.05
2023-10-22T02:21:39.949Z,44.28
2023-10-22T02:21:54.273Z,45.00
2023-10-22T02:22:06.923Z,46.65
2023-10-22T02:22:19.633Z,46.88
2023-10-22T02:22:32.517Z,45.42
2023-10-22T02:22:46.123Z,42.92
2023-10-22T02:23:00.297Z,43.72
2023-10-22T02:23:12.984Z,44.40
2023-10-22T02:23:27.975Z,44.53
2023-10-22T02:23:41.227Z,43.53
2023-10-22T02:23:54.226Z,43.40
2023-10-22T02:24:07.849Z,44.08
2023-10-22T02:24:20.789Z,43.65
2023-10-22T02:24:33.531Z,42.40
2023-10-22T02:24:46.238Z,43.53
2023-10-22T02:24:59.904Z,44.22
2023-10-22T02:25:12.942Z,42.92
2023-10-22T02:25:25.684Z,42.35
2023-10-22T02:25:38.347Z,41.55
2023-10-22T02:25:51.317Z,42.58
2023-10-22T02:26:05.776Z,44.65
2023-10-22T02:26:18.502Z,43.95
2023-10-22T02:26:32.151Z,41.42
2023-10-22T02:26:44.872Z,44.10
2023-10-22T02:26:57.567Z,46.10
2023-10-22T02:27:10.400Z,45.42
2023-10-22T02:27:23.083Z,45.95
2023-10-22T02:27:36.446Z,44.20
2023-10-22T02:27:49.091Z,43.92
2023-10-22T02:28:01.769Z,45.38
2023-10-22T02:28:14.766Z,44.92
2023-10-22T02:28:28.426Z,45.08
2023-10-22T02:28:41.383Z,44.35
2023-10-22T02:28:54.061Z,43.65
2023-10-22T02:29:07.017Z,44.22
2023-10-22T02:29:19.626Z,45.80
2023-10-22T02:29:32.588Z,46.17
2023-10-22T02:29:45.284Z,43.92
2023-10-22T02:29:58.195Z,42.08
2023-10-22T02:30:11.553Z,43.65
2023-10-22T02:30:25.330Z,44.47
2023-10-22T02:30:38.240Z,44.70
2023-10-22T02:30:51.984Z,43.90
2023-10-22T02:31:05.817Z,44.20
2023-10-22T02:31:21.905Z,44.80
2023-10-22T02:31:34.719Z,44.47
2023-10-22T02:31:47.379Z,42.70
2023-10-22T02:31:59.995Z,43.03
2023-10-22T02:32:12.685Z,43.85
2023-10-22T02:32:25.671Z,44.97
2023-10-22T02:32:39.406Z,46.38
2023-10-22T02:32:52.162Z,47.45
2023-10-22T02:33:05.374Z,46.33
2023-10-22T02:33:18.809Z,43.58
2023-10-22T02:33:31.675Z,42.55
2023-10-22T02:33:44.465Z,42.60
2023-10-22T02:34:04.078Z,42.55
2023-10-22T02:34:16.739Z,42.15
2023-10-22T02:34:29.388Z,43.05
2023-10-22T02:34:42.055Z,40.38
2023-10-22T02:34:55.827Z,41.13
2023-10-22T02:35:09.536Z,44.33
2023-10-22T02:35:22.308Z,42.25
2023-10-22T02:35:40.086Z,40.58
2023-10-22T02:35:52.780Z,41.75
2023-10-22T02:36:08.093Z,39.88
2023-10-22T02:36:20.966Z,39.35
2023-10-22T02:36:35.015Z,41.90
2023-10-22T02:36:47.653Z,44.45
2023-10-22T02:37:00.561Z,47.25
2023-10-22T02:37:13.258Z,46.60
2023-10-22T02:37:25.928Z,45.38
2023-10-22T02:37:38.621Z,46.15
2023-10-22T02:37:51.248Z,46.22
2023-10-22T02:38:03.931Z,47.67
2023-10-22T02:38:17.954Z,49.95
2023-10-22T02:38:31.932Z,49.95
2023-10-22T02:38:45.601Z,49.45
2023-10-22T02:38:58.387Z,47.22
2023-10-22T02:39:12.916Z,50.08
2023-10-22T02:39:25.679Z,50.40
2023-10-22T02:39:38.825Z,49.38
2023-10-22T02:39:51.506Z,49.08
2023-10-22T02:40:05.023Z,48.33
2023-10-22T02:40:17.709Z,48.75
2023-10-22T02:40:32.684Z,48.92
2023-10-22T02:40:49.764Z,49.08
2023-10-22T02:41:03.740Z,47.78
2023-10-22T02:41:16.382Z,47.60
2023-10-22T02:41:29.785Z,49.90
2023-10-22T02:41:42.574Z,47.80
2023-10-22T02:41:55.293Z,46.50
2023-10-22T02:42:09.051Z,45.65
2023-10-22T02:42:21.750Z,45.42
2023-10-22T02:42:34.473Z,45.47
2023-10-22T02:42:48.839Z,46.38
2023-10-22T02:43:01.441Z,45.75
2023-10-22T02:43:14.115Z,44.15
2023-10-22T02:43:26.985Z,44.50
2023-10-22T02:43:39.625Z,46.15
2023-10-22T02:43:52.348Z,47.17
2023-10-22T02:44:05.724Z,48.95
2023-10-22T02:44:18.355Z,52.20
2023-10-22T02:44:30.961Z,50.33
2023-10-22T02:44:43.602Z,46.30
2023-10-22T02:44:57.548Z,44.70
2023-10-22T02:45:11.009Z,44.40
2023-10-22T02:45:23.721Z,45.10
2023-10-22T02:45:36.482Z,46.58
2023-10-22T02:45:52.212Z,48.40
2023-10-22T02:46:04.878Z,48.40
2023-10-22T02:46:17.632Z,47.20
2023-10-22T02:46:30.377Z,44.45
2023-10-22T02:46:43.086Z,45.88
2023-10-22T02:46:57.951Z,47.40
2023-10-22T02:47:10.611Z,43.20
2023-10-22T02:47:23.390Z,45.38
2023-10-22T02:47:36.915Z,48.65
2023-10-22T02:47:49.651Z,47.65
2023-10-22T02:48:02.501Z,45.10
2023-10-22T02:48:15.312Z,45.45
2023-10-22T02:48:29.239Z,45.88
2023-10-22T02:48:42.056Z,43.55
2023-10-22T02:48:54.998Z,41.88
2023-10-22T02:49:08.427Z,41.15
2023-10-22T02:49:21.114Z,42.95
2023-10-22T02:49:33.777Z,43.80
2023-10-22T02:49:46.414Z,43.53
2023-10-22T02:49:59.030Z,42.88
2023-10-22T02:50:12.596Z,43.67
2023-10-22T02:50:26.897Z,42.92
2023-10-22T02:50:39.835Z,41.15
2023-10-22T02:50:52.723Z,43.70
2023-10-22T02:51:05.616Z,44.08
2023-10-22T02:51:18.583Z,42.65
2023-10-22T02:51:33.288Z,42.40
2023-10-22T02:51:46.012Z,41.35